createdAt,value
2017-10-31T00:01:29.797Z,87.70
2017-10-31T00:03:57.305Z,87.50
2017-10-31T00:06:24.793Z,87.30
2017-10-31T00:08:53.077Z,87.00
2017-10-31T00:11:21.332Z,87.00
2017-10-31T00:13:48.849Z,87.00
2017-10-31T00:16:17.096Z,86.70
2017-10-31T00:18:44.639Z,86.70
2017-10-31T00:21:12.126Z,86.70
2017-10-31T00:23:39.646Z,86.50
2017-10-31T00:26:07.134Z,86.30
2017-10-31T00:28:35.433Z,86.30
2017-10-31T00:31:02.927Z,86.30
2017-10-31T00:33:30.452Z,86.30
2017-10-31T00:35:58.708Z,86.30
2017-10-31T00:38:26.244Z,86.20
2017-10-31T00:40:53.733Z,86.40
2017-10-31T00:43:21.219Z,86.60
2017-10-31T00:45:48.741Z,86.70
2017-10-31T00:48:16.994Z,86.80
2017-10-31T00:50:45.296Z,87.60
2017-10-31T00:53:12.785Z,86.80
2017-10-31T00:55:41.073Z,86.60
2017-10-31T00:58:08.556Z,86.50
2017-10-31T01:00:36.081Z,86.60
2017-10-31T01:03:03.565Z,86.40
2017-10-31T01:05:31.089Z,86.30
2017-10-31T01:07:58.573Z,86.30
2017-10-31T01:10:26.127Z,86.20
2017-10-31T01:12:53.606Z,86.30
2017-10-31T01:15:21.090Z,86.20
2017-10-31T01:17:48.611Z,86.10
2017-10-31T01:20:16.109Z,85.80
2017-10-31T01:22:43.628Z,86.00
2017-10-31T01:25:11.114Z,85.90
2017-10-31T01:27:38.638Z,86.00
2017-10-31T01:30:06.121Z,86.00
2017-10-31T01:32:33.640Z,86.10
2017-10-31T01:35:01.148Z,86.00
2017-10-31T01:37:28.675Z,86.00
2017-10-31T01:39:56.152Z,86.00
2017-10-31T01:42:24.462Z,86.20
2017-10-31T01:44:51.949Z,86.10
2017-10-31T01:47:19.500Z,86.20
2017-10-31T01:49:47.025Z,86.30
2017-10-31T01:52:14.511Z,86.40
2017-10-31T01:54:42.034Z,86.40
2017-10-31T01:57:09.520Z,86.40
2017-10-31T01:59:37.040Z,86.50
2017-10-31T02:02:05.293Z,86.70
2017-10-31T02:04:32.815Z,86.70
2017-10-31T02:07:00.301Z,87.00
2017-10-31T02:09:27.817Z,87.10
2017-10-31T02:11:55.300Z,87.20
2017-10-31T02:14:22.828Z,87.20
2017-10-31T02:16:50.313Z,87.10
2017-10-31T02:19:18.617Z,87.30
2017-10-31T02:21:46.108Z,87.30
2017-10-31T02:24:13.599Z,87.50
2017-10-31T02:26:41.128Z,87.70
2017-10-31T02:29:08.613Z,87.50
2017-10-31T02:31:36.141Z,87.50
2017-10-31T02:34:03.629Z,87.50
2017-10-31T02:36:31.154Z,87.50
2017-10-31T02:39:10.581Z,87.60
2017-10-31T02:41:38.888Z,87.50
2017-10-31T02:46:56.605Z,87.40
2017-10-31T02:49:24.089Z,87.40
2017-10-31T02:51:51.605Z,87.40
2017-10-31T02:54:19.857Z,87.50
2017-10-31T02:56:47.374Z,87.50
2017-10-31T02:59:14.865Z,87.60
2017-10-31T03:01:42.353Z,87.70
2017-10-31T03:04:09.864Z,87.80
2017-10-31T03:06:37.346Z,87.80
2017-10-31T03:09:05.640Z,87.90
2017-10-31T03:11:33.884Z,87.80
2017-10-31T03:14:01.415Z,87.80
2017-10-31T03:16:28.909Z,87.80
2017-10-31T03:18:56.464Z,87.70
2017-10-31T03:21:24.069Z,87.70
2017-10-31T03:23:51.596Z,87.70
2017-10-31T03:26:19.845Z,87.70
2017-10-31T03:28:47.388Z,87.70
2017-10-31T03:31:14.875Z,88.00
2017-10-31T03:33:42.357Z,88.10
2017-10-31T03:36:09.870Z,88.10
2017-10-31T03:38:38.120Z,88.00
2017-10-31T03:41:05.641Z,88.00
2017-10-31T03:43:33.132Z,88.10
2017-10-31T03:46:00.653Z,88.10
2017-10-31T03:48:28.901Z,88.40
2017-10-31T03:50:56.435Z,88.30
2017-10-31T03:53:23.922Z,88.30
2017-10-31T03:55:51.414Z,88.20
2017-10-31T03:58:18.937Z,88.10
2017-10-31T04:00:46.422Z,88.30
2017-10-31T04:03:13.942Z,88.40
2017-10-31T04:05:41.430Z,88.20
2017-10-31T04:08:08.945Z,88.20
2017-10-31T04:10:36.429Z,88.10
2017-10-31T04:13:03.949Z,88.10
2017-10-31T04:15:31.447Z,88.10
2017-10-31T04:17:58.985Z,88.50
2017-10-31T04:20:26.479Z,88.10
2017-10-31T04:22:54.733Z,88.10
2017-10-31T04:25:22.256Z,88.10
2017-10-31T04:27:49.744Z,87.90
2017-10-31T04:30:17.264Z,87.70
2017-10-31T04:32:44.752Z,87.60
2017-10-31T04:35:13.032Z,87.90
2017-10-31T04:37:40.512Z,87.80
2017-10-31T04:40:08.797Z,87.70
2017-10-31T04:42:37.050Z,87.70
2017-10-31T04:45:04.590Z,87.70
2017-10-31T04:47:32.081Z,87.50
2017-10-31T04:49:59.566Z,87.60
2017-10-31T04:52:27.085Z,87.80
2017-10-31T04:54:55.334Z,88.30
2017-10-31T04:57:22.857Z,88.20
2017-10-31T04:59:50.349Z,88.30
2017-10-31T05:02:17.872Z,88.60
2017-10-31T05:04:46.129Z,88.60
2017-10-31T05:07:13.651Z,88.60
2017-10-31T05:09:41.230Z,88.60
2017-10-31T05:12:08.765Z,88.50
2017-10-31T05:14:36.258Z,88.50
2017-10-31T05:17:04.504Z,88.10
2017-10-31T05:19:32.027Z,88.10
2017-10-31T05:21:59.509Z,87.90
2017-10-31T05:24:27.056Z,87.90
2017-10-31T05:26:55.308Z,87.90
2017-10-31T05:29:22.833Z,87.90
2017-10-31T05:31:50.326Z,87.90
2017-10-31T05:34:17.853Z,87.90
2017-10-31T05:36:46.114Z,87.80
2017-10-31T05:39:13.635Z,87.80
2017-10-31T05:41:41.117Z,87.70
2017-10-31T05:44:08.638Z,87.60
2017-10-31T05:46:36.122Z,87.40
2017-10-31T05:49:03.664Z,87.50
2017-10-31T05:51:31.159Z,87.50
2017-10-31T05:53:58.644Z,87.30
2017-10-31T05:56:26.940Z,86.60
2017-10-31T05:58:55.185Z,86.50
2017-10-31T06:01:22.711Z,86.50
2017-10-31T06:03:50.198Z,86.40
2017-10-31T06:06:17.722Z,86.50
2017-10-31T06:08:45.209Z,86.50
2017-10-31T06:11:13.493Z,86.80
2017-10-31T06:13:41.751Z,87.30
2017-10-31T06:16:10.048Z,86.60
2017-10-31T06:18:37.532Z,86.60
2017-10-31T06:21:05.088Z,86.60
2017-10-31T06:23:38.194Z,86.60
2017-10-31T06:26:11.339Z,86.80
2017-10-31T06:28:45.170Z,86.50
2017-10-31T06:31:18.438Z,86.50
2017-10-31T06:33:45.929Z,86.30
2017-10-31T06:36:14.183Z,86.50
2017-10-31T06:38:41.717Z,86.40
2017-10-31T06:41:09.210Z,86.50
2017-10-31T06:43:36.732Z,86.50
2017-10-31T06:46:04.977Z,86.50
2017-10-31T06:48:32.497Z,86.50
2017-10-31T06:51:00.749Z,86.70
2017-10-31T06:53:28.289Z,86.60
2017-10-31T06:55:55.783Z,86.80
2017-10-31T06:58:23.273Z,86.70
2017-10-31T07:00:50.797Z,86.60
2017-10-31T07:03:18.280Z,86.50
2017-10-31T07:05:45.801Z,86.10
2017-10-31T07:08:13.296Z,85.60
2017-10-31T07:10:40.812Z,85.40
2017-10-31T07:13:08.304Z,85.10
2017-10-31T07:15:35.824Z,85.40
2017-10-31T07:18:03.312Z,84.80
2017-10-31T07:20:30.797Z,85.20
2017-10-31T07:22:58.317Z,85.20
2017-10-31T07:25:25.807Z,84.70
2017-10-31T07:27:53.328Z,84.30
2017-10-31T07:30:20.821Z,83.70
2017-10-31T07:32:49.109Z,83.00
2017-10-31T07:35:17.367Z,82.10
2017-10-31T07:37:44.901Z,82.10
2017-10-31T07:40:12.385Z,82.00
2017-10-31T07:42:39.925Z,82.50
2017-10-31T07:45:08.174Z,82.50
2017-10-31T07:47:35.678Z,82.50
2017-10-31T07:50:03.205Z,82.40
2017-10-31T07:52:30.698Z,82.30
2017-10-31T07:54:58.225Z,82.40
2017-10-31T07:57:25.728Z,81.60
2017-10-31T07:59:53.244Z,81.00
2017-10-31T08:02:20.729Z,81.10
2017-10-31T08:04:48.249Z,80.30
2017-10-31T08:07:15.733Z,80.00
2017-10-31T08:09:43.258Z,80.20
2017-10-31T08:12:10.741Z,80.20
2017-10-31T08:14:38.270Z,79.90
2017-10-31T08:17:05.758Z,80.20
2017-10-31T08:19:33.348Z,79.50
2017-10-31T08:22:00.831Z,78.60
2017-10-31T08:24:28.549Z,78.00
2017-10-31T08:26:56.849Z,70.00
2017-10-31T08:29:24.341Z,69.80
2017-10-31T08:31:51.865Z,66.20
2017-10-31T08:34:19.353Z,65.90
2017-10-31T08:36:46.877Z,66.20
2017-10-31T08:39:14.373Z,67.20
2017-10-31T08:41:41.897Z,67.40
2017-10-31T08:44:09.389Z,68.20
2017-10-31T08:46:36.925Z,66.90
2017-10-31T08:49:04.413Z,67.40
2017-10-31T08:51:31.949Z,68.40
2017-10-31T08:54:00.302Z,69.60
2017-10-31T08:56:27.789Z,69.50
2017-10-31T08:58:55.324Z,69.80
2017-10-31T09:01:22.813Z,69.80
2017-10-31T09:03:50.342Z,70.30
2017-10-31T09:06:17.830Z,70.20
2017-10-31T09:08:45.354Z,69.70
2017-10-31T09:11:12.846Z,70.10
2017-10-31T09:13:40.381Z,70.70
2017-10-31T09:16:07.881Z,69.50
2017-10-31T09:18:35.475Z,69.50
2017-10-31T09:21:02.969Z,69.70
2017-10-31T09:23:30.454Z,69.50
2017-10-31T09:25:57.973Z,69.70
2017-10-31T09:28:26.229Z,69.30
2017-10-31T09:30:53.749Z,69.30
2017-10-31T09:33:21.245Z,69.50
2017-10-31T09:35:48.765Z,69.50
2017-10-31T09:38:17.025Z,69.60
2017-10-31T09:40:44.729Z,69.60
2017-10-31T09:43:12.986Z,68.80
2017-10-31T09:45:40.474Z,68.80
2017-10-31T09:48:07.997Z,68.80
2017-10-31T09:50:35.493Z,68.50
2017-10-31T09:53:03.017Z,68.20
2017-10-31T09:55:31.273Z,68.40
2017-10-31T09:57:58.802Z,68.30
2017-10-31T10:00:26.302Z,68.50
2017-10-31T10:02:54.593Z,68.30
2017-10-31T10:05:22.081Z,68.30
2017-10-31T10:07:49.605Z,68.60
2017-10-31T10:10:17.105Z,68.60
2017-10-31T10:12:44.602Z,68.80
2017-10-31T10:15:12.126Z,68.60
2017-10-31T10:17:39.617Z,68.00
2017-10-31T10:20:07.141Z,68.00
2017-10-31T10:22:34.624Z,67.50
2017-10-31T10:25:02.166Z,66.40
2017-10-31T10:27:29.657Z,67.00
2017-10-31T10:29:57.181Z,66.20
2017-10-31T10:32:24.665Z,65.70
2017-10-31T10:34:52.178Z,65.10
2017-10-31T10:37:19.718Z,65.50
2017-10-31T10:39:47.206Z,65.30
2017-10-31T10:42:15.497Z,64.80
2017-10-31T10:44:42.989Z,64.80
2017-10-31T10:47:10.513Z,65.50
2017-10-31T10:49:38.009Z,64.40
2017-10-31T10:52:06.308Z,64.90
2017-10-31T10:54:33.806Z,64.90
2017-10-31T10:57:01.345Z,65.30
2017-10-31T10:59:28.838Z,64.90
2017-10-31T11:01:56.326Z,64.80
2017-10-31T11:04:23.852Z,65.60
2017-10-31T11:06:52.104Z,64.30
2017-10-31T11:09:19.623Z,64.30
2017-10-31T11:11:47.110Z,62.30
2017-10-31T11:14:14.629Z,61.90
2017-10-31T11:16:42.128Z,61.80
2017-10-31T11:19:10.414Z,60.20
2017-10-31T11:21:38.665Z,58.50
2017-10-31T11:24:06.181Z,58.50
2017-10-31T11:26:33.693Z,58.00
2017-10-31T11:29:01.238Z,57.20
2017-10-31T11:31:28.728Z,56.00
2017-10-31T11:33:56.213Z,55.10
2017-10-31T11:36:23.752Z,54.70
2017-10-31T11:38:51.238Z,55.60
2017-10-31T11:41:18.763Z,53.90
2017-10-31T11:43:47.024Z,55.10
2017-10-31T11:46:14.546Z,55.10
2017-10-31T11:48:42.029Z,54.60
2017-10-31T11:51:09.577Z,54.80
2017-10-31T11:53:37.829Z,55.30
2017-10-31T11:56:05.321Z,55.20
2017-10-31T11:58:32.856Z,54.70
2017-10-31T12:01:00.351Z,54.40
2017-10-31T12:03:27.906Z,54.60
2017-10-31T12:05:55.393Z,54.90
2017-10-31T12:08:22.911Z,55.80
2017-10-31T12:10:50.480Z,56.00
2017-10-31T12:13:18.012Z,55.20
2017-10-31T12:15:46.117Z,55.20
2017-10-31T12:18:14.370Z,55.60
2017-10-31T12:20:41.889Z,55.50
2017-10-31T12:23:10.141Z,56.70
2017-10-31T12:25:37.666Z,56.70
2017-10-31T12:28:05.158Z,57.10
2017-10-31T12:30:32.690Z,57.10
2017-10-31T12:33:00.946Z,56.40
2017-10-31T12:35:28.477Z,56.40
2017-10-31T12:37:55.969Z,56.90
2017-10-31T12:40:23.461Z,56.90
2017-10-31T12:42:50.983Z,56.50
2017-10-31T12:45:18.469Z,55.80
2017-10-31T12:47:46.014Z,56.10
2017-10-31T12:50:13.507Z,56.30
2017-10-31T12:52:41.034Z,55.40
2017-10-31T12:55:08.530Z,55.10
2017-10-31T12:57:36.054Z,55.20
2017-10-31T13:00:03.554Z,55.00
2017-10-31T13:02:31.837Z,55.00
2017-10-31T13:04:59.322Z,55.00
2017-10-31T13:07:27.641Z,55.60
2017-10-31T13:09:55.136Z,55.50
2017-10-31T13:12:22.622Z,55.60
2017-10-31T13:14:50.156Z,56.40
2017-10-31T13:17:18.409Z,56.40
2017-10-31T13:19:46.701Z,57.00
2017-10-31T13:22:14.958Z,57.00
2017-10-31T13:24:42.500Z,57.00
2017-10-31T13:27:10.291Z,57.70
2017-10-31T13:29:39.073Z,57.70
2017-10-31T13:32:07.799Z,57.60
2017-10-31T13:34:35.725Z,57.50
2017-10-31T13:37:03.545Z,57.70
2017-10-31T13:39:31.847Z,58.00
2017-10-31T13:41:59.766Z,58.10
2017-10-31T13:44:29.233Z,58.30
2017-10-31T13:46:57.120Z,58.30
2017-10-31T13:49:24.909Z,58.10
2017-10-31T13:51:52.795Z,58.70
2017-10-31T13:54:20.281Z,58.60
2017-10-31T13:56:47.805Z,58.00
2017-10-31T13:59:15.312Z,58.30
2017-10-31T14:01:43.142Z,58.60
2017-10-31T14:04:10.991Z,58.70
2017-10-31T14:06:39.722Z,58.90
2017-10-31T14:09:07.447Z,58.90
2017-10-31T14:11:35.390Z,59.00
2017-10-31T14:14:02.914Z,58.50
2017-10-31T14:16:30.407Z,58.70
2017-10-31T14:18:58.077Z,59.10
2017-10-31T14:21:26.625Z,60.00
2017-10-31T14:23:54.150Z,60.10
2017-10-31T14:26:21.647Z,60.00
2017-10-31T14:28:49.174Z,60.70
2017-10-31T14:31:17.432Z,60.50
2017-10-31T14:33:44.976Z,60.60
2017-10-31T14:36:12.465Z,60.60
2017-10-31T14:38:39.972Z,60.20
2017-10-31T14:41:07.501Z,60.50
2017-10-31T14:43:34.982Z,60.00
2017-10-31T14:46:02.504Z,60.10
2017-10-31T14:48:30.759Z,60.50
2017-10-31T14:50:58.293Z,60.50
2017-10-31T14:53:25.781Z,60.30
2017-10-31T14:55:53.304Z,60.20
2017-10-31T14:58:21.570Z,60.90
2017-10-31T15:00:49.123Z,60.90
2017-10-31T15:03:16.639Z,60.70
2017-10-31T15:05:44.922Z,60.80
2017-10-31T15:08:13.214Z,61.60
2017-10-31T15:10:41.466Z,61.70
2017-10-31T15:13:08.997Z,61.70
2017-10-31T15:15:36.491Z,61.20
2017-10-31T15:18:04.026Z,61.20
2017-10-31T15:20:31.525Z,61.80
2017-10-31T15:22:59.065Z,62.60
2017-10-31T15:25:27.341Z,63.00
2017-10-31T15:27:55.597Z,62.90
2017-10-31T15:30:23.119Z,63.00
2017-10-31T15:32:51.382Z,63.00
2017-10-31T15:35:18.933Z,63.00
2017-10-31T15:37:46.421Z,63.50
2017-10-31T15:40:13.958Z,63.70
2017-10-31T15:42:41.453Z,64.30
2017-10-31T15:45:09.005Z,65.00
2017-10-31T15:47:36.506Z,64.90
2017-10-31T15:50:04.046Z,64.70
2017-10-31T15:52:31.542Z,65.00
2017-10-31T15:54:59.086Z,65.30
2017-10-31T15:57:26.592Z,65.30
2017-10-31T15:59:54.141Z,66.00
2017-10-31T16:02:21.636Z,66.20
2017-10-31T16:04:49.126Z,66.10
2017-10-31T16:07:16.659Z,66.70
2017-10-31T16:09:44.154Z,66.70
2017-10-31T16:12:11.678Z,66.90
2017-10-31T16:14:39.165Z,66.50
2017-10-31T16:17:06.689Z,66.80
2017-10-31T16:19:34.937Z,67.60
2017-10-31T16:22:02.481Z,67.70
2017-10-31T16:24:29.973Z,67.50
2017-10-31T16:26:57.495Z,67.70
2017-10-31T16:29:25.750Z,67.90
2017-10-31T16:31:53.277Z,67.80
2017-10-31T16:34:20.766Z,67.90
2017-10-31T16:36:48.321Z,68.10
2017-10-31T16:39:15.818Z,68.20
2017-10-31T16:41:43.305Z,68.50
2017-10-31T16:44:10.842Z,68.50
2017-10-31T16:46:38.506Z,68.40
2017-10-31T16:49:06.033Z,68.60
2017-10-31T16:51:33.525Z,68.90
2017-10-31T16:54:01.813Z,69.20
2017-10-31T16:56:30.075Z,69.40
2017-10-31T16:58:57.778Z,69.30
2017-10-31T17:01:25.266Z,69.60
2017-10-31T17:03:52.750Z,69.70
2017-10-31T17:06:20.281Z,69.70
2017-10-31T17:08:47.775Z,70.00
2017-10-31T17:11:15.305Z,70.20
2017-10-31T17:13:42.798Z,70.30
2017-10-31T17:16:11.111Z,70.50
2017-10-31T17:18:38.609Z,70.50
2017-10-31T17:21:06.106Z,70.60
2017-10-31T17:23:33.641Z,70.80
2017-10-31T17:26:01.134Z,70.80
2017-10-31T17:28:28.670Z,70.80
2017-10-31T17:30:56.161Z,70.80
2017-10-31T17:33:23.716Z,71.00
2017-10-31T17:35:51.216Z,71.00
2017-10-31T17:38:18.761Z,71.20
2017-10-31T17:40:46.256Z,71.00
2017-10-31T17:43:13.802Z,70.90
2017-10-31T17:45:41.304Z,71.10
2017-10-31T17:48:08.794Z,71.20
2017-10-31T17:50:36.330Z,71.30
2017-10-31T17:53:03.837Z,71.40
2017-10-31T17:55:31.361Z,71.60
2017-10-31T17:57:58.861Z,71.50
2017-10-31T18:00:26.390Z,71.70
2017-10-31T18:02:53.887Z,71.60
2017-10-31T18:05:21.409Z,71.40
2017-10-31T18:07:48.901Z,71.10
2017-10-31T18:10:17.205Z,70.90
2017-10-31T18:12:44.697Z,71.00
2017-10-31T18:15:12.184Z,71.10
2017-10-31T18:17:39.722Z,71.50
2017-10-31T18:20:07.212Z,71.20
2017-10-31T18:22:34.737Z,71.00
2017-10-31T18:25:02.984Z,71.00
2017-10-31T18:27:30.510Z,71.00
2017-10-31T18:29:58.765Z,71.00
2017-10-31T18:32:26.289Z,71.00
2017-10-31T18:34:53.789Z,71.10
2017-10-31T18:37:21.321Z,70.90
2017-10-31T18:39:48.823Z,70.60
2017-10-31T18:42:16.362Z,70.70
2017-10-31T18:44:43.854Z,70.90
2017-10-31T18:47:11.374Z,71.00
2017-10-31T18:49:38.878Z,70.80
2017-10-31T18:52:06.428Z,70.80
2017-10-31T18:54:34.701Z,70.30
2017-10-31T18:57:02.207Z,70.30
2017-10-31T18:59:29.735Z,70.10
2017-10-31T19:01:57.233Z,70.30
2017-10-31T19:04:25.526Z,70.20
2017-10-31T19:06:53.025Z,70.20
2017-10-31T19:09:20.575Z,70.50
2017-10-31T19:11:48.833Z,70.30
2017-10-31T19:14:16.374Z,70.30
2017-10-31T19:16:43.863Z,70.20
2017-10-31T19:19:11.389Z,70.00
2017-10-31T19:21:38.900Z,70.00
2017-10-31T19:24:07.214Z,69.90
2017-10-31T19:26:34.713Z,69.90
2017-10-31T19:29:02.973Z,70.10
2017-10-31T19:31:30.505Z,70.20
2017-10-31T19:33:57.994Z,69.80
2017-10-31T19:36:25.730Z,69.90
2017-10-31T19:38:53.222Z,69.90
2017-10-31T19:41:20.781Z,69.80
2017-10-31T19:43:48.278Z,70.00
2017-10-31T19:46:15.825Z,70.10
2017-10-31T19:48:43.313Z,70.20
2017-10-31T19:51:10.807Z,70.70
2017-10-31T19:53:38.346Z,70.70
2017-10-31T19:56:05.837Z,70.50
2017-10-31T19:58:33.373Z,70.50
2017-10-31T20:01:00.866Z,70.40
2017-10-31T20:03:28.398Z,70.60
2017-10-31T20:05:56.656Z,70.60
2017-10-31T20:08:24.185Z,70.60
2017-10-31T20:10:51.673Z,70.50
2017-10-31T20:13:19.218Z,70.30
2017-10-31T20:15:47.577Z,70.50
2017-10-31T20:18:15.147Z,70.30
2017-10-31T20:20:42.641Z,70.50
2017-10-31T20:23:10.907Z,70.60
2017-10-31T20:25:38.466Z,70.50
2017-10-31T20:28:05.965Z,70.60
2017-10-31T20:30:34.260Z,70.20
2017-10-31T20:33:02.525Z,70.20
2017-10-31T20:35:30.063Z,70.20
2017-10-31T20:37:57.563Z,70.20
2017-10-31T20:40:25.107Z,70.30
2017-10-31T20:42:52.598Z,70.00
2017-10-31T20:45:20.144Z,70.10
2017-10-31T20:47:47.633Z,69.80
2017-10-31T20:50:15.125Z,69.70
2017-10-31T20:52:42.672Z,69.40
2017-10-31T20:55:10.154Z,69.50
2017-10-31T20:57:37.697Z,69.60
2017-10-31T21:00:05.189Z,69.70
2017-10-31T21:02:32.713Z,69.70
2017-10-31T21:05:00.973Z,69.30
2017-10-31T21:07:28.517Z,69.20
2017-10-31T21:09:56.014Z,68.70
2017-10-31T21:12:23.503Z,68.10
2017-10-31T21:14:51.924Z,67.60
2017-10-31T21:17:19.410Z,67.70
2017-10-31T21:19:46.933Z,67.50
2017-10-31T21:22:14.423Z,67.60
2017-10-31T21:24:41.951Z,67.10
2017-10-31T21:27:09.441Z,67.10
2017-10-31T21:29:37.145Z,67.20
2017-10-31T21:32:04.630Z,67.30
2017-10-31T21:34:32.112Z,67.30
2017-10-31T21:36:59.645Z,67.70
2017-10-31T21:39:27.917Z,67.80
2017-10-31T21:41:55.441Z,67.80
2017-10-31T21:44:22.925Z,67.90
2017-10-31T21:46:50.444Z,68.20
2017-10-31T21:49:18.697Z,68.30
2017-10-31T21:51:46.244Z,68.30
2017-10-31T21:54:13.729Z,68.10
2017-10-31T21:56:41.216Z,68.10
2017-10-31T21:59:08.737Z,68.30
2017-10-31T22:01:36.223Z,68.50
2017-10-31T22:04:03.750Z,68.80
2017-10-31T22:06:31.245Z,68.90
2017-10-31T22:08:59.539Z,68.20
2017-10-31T22:11:27.025Z,68.20
2017-10-31T22:13:54.544Z,68.30
2017-10-31T22:16:22.028Z,68.40
2017-10-31T22:18:49.557Z,68.30
2017-10-31T22:21:17.041Z,68.00
2017-10-31T22:23:44.566Z,68.10
2017-10-31T22:26:12.093Z,68.10
2017-10-31T22:28:39.580Z,68.00
2017-10-31T22:31:07.102Z,67.80
2017-10-31T22:33:34.594Z,67.70
2017-10-31T22:36:02.117Z,68.00
2017-10-31T22:38:29.606Z,68.20
2017-10-31T22:40:57.129Z,68.10
2017-10-31T22:43:24.618Z,68.20
2017-10-31T22:45:52.909Z,68.30
2017-10-31T22:48:21.157Z,68.30
2017-10-31T22:50:48.678Z,68.30
2017-10-31T22:53:16.924Z,68.10
2017-10-31T22:55:44.437Z,68.10
2017-10-31T22:58:12.689Z,68.50
2017-10-31T23:00:40.228Z,68.50
2017-10-31T23:03:07.720Z,68.50
2017-10-31T23:05:35.201Z,68.90
2017-10-31T23:08:02.734Z,68.90
2017-10-31T23:10:30.230Z,69.10
2017-10-31T23:12:57.768Z,69.00
2017-10-31T23:15:25.249Z,69.10
2017-10-31T23:17:52.738Z,69.10
2017-10-31T23:20:20.261Z,69.20
2017-10-31T23:22:48.517Z,69.40
2017-10-31T23:25:16.048Z,70.10
2017-10-31T23:27:43.545Z,70.60
2017-10-31T23:30:11.070Z,71.00
2017-10-31T23:32:39.324Z,74.10
2017-10-31T23:35:06.845Z,75.20
2017-10-31T23:37:34.325Z,76.50
2017-10-31T23:40:01.870Z,77.70
2017-10-31T23:42:30.121Z,78.40
2017-10-31T23:44:57.614Z,78.30
2017-10-31T23:47:25.136Z,79.10
2017-10-31T23:49:52.621Z,79.60
2017-10-31T23:52:20.140Z,79.10
2017-10-31T23:54:48.392Z,79.60
2017-10-31T23:57:15.909Z,79.60
2017-10-31T23:59:44.160Z,78.00
